createdAt,value
2017-11-29T00:01:26.260Z,9.40
2017-11-29T00:03:54.565Z,3.13
2017-11-29T00:06:22.845Z,4.37
2017-11-29T00:08:51.119Z,4.70
2017-11-29T00:11:19.397Z,5.87
2017-11-29T00:13:47.645Z,3.60
2017-11-29T00:16:15.922Z,5.50
2017-11-29T00:18:44.176Z,3.40
2017-11-29T00:21:12.517Z,4.40
2017-11-29T00:23:40.833Z,6.10
2017-11-29T00:26:09.881Z,8.07
2017-11-29T00:28:38.142Z,6.40
2017-11-29T00:31:06.395Z,6.57
2017-11-29T00:33:34.685Z,8.37
2017-11-29T00:36:02.938Z,6.93
2017-11-29T00:38:31.249Z,5.33
2017-11-29T00:40:59.511Z,4.43
2017-11-29T00:43:27.778Z,5.60
2017-11-29T00:45:56.030Z,8.60
2017-11-29T00:48:25.193Z,6.07
2017-11-29T00:50:53.446Z,6.73
2017-11-29T00:53:21.687Z,3.80
2017-11-29T00:55:50.725Z,8.17
2017-11-29T00:58:18.985Z,4.60
2017-11-29T01:00:47.272Z,5.93
2017-11-29T01:03:15.517Z,6.10
2017-11-29T01:05:44.565Z,5.90
2017-11-29T01:08:12.831Z,8.10
2017-11-29T01:10:41.141Z,7.20
2017-11-29T01:13:09.405Z,7.83
2017-11-29T01:15:38.430Z,5.70
2017-11-29T01:18:07.484Z,3.80
2017-11-29T01:20:35.724Z,5.37
2017-11-29T01:23:03.998Z,8.47
2017-11-29T01:25:32.244Z,7.10
2017-11-29T01:28:00.544Z,5.53
2017-11-29T01:30:28.793Z,6.93
2017-11-29T01:32:57.136Z,5.27
2017-11-29T01:35:25.442Z,6.73
2017-11-29T01:37:53.809Z,8.00
2017-11-29T01:40:22.054Z,6.20
2017-11-29T01:42:50.307Z,8.97
2017-11-29T01:45:18.625Z,9.63
2017-11-29T01:47:46.882Z,5.73
2017-11-29T01:50:15.158Z,6.47
2017-11-29T01:52:43.405Z,5.27
2017-11-29T01:55:12.449Z,5.80
2017-11-29T01:57:40.717Z,4.70
2017-11-29T02:00:09.121Z,7.33
2017-11-29T02:02:37.514Z,4.30
2017-11-29T02:05:07.280Z,6.20
2017-11-29T02:07:35.553Z,5.20
2017-11-29T02:10:03.819Z,10.40
2017-11-29T02:12:32.131Z,10.97
2017-11-29T02:15:00.391Z,5.33
2017-11-29T02:17:28.681Z,9.40
2017-11-29T02:19:56.965Z,8.43
2017-11-29T02:22:25.250Z,10.90
2017-11-29T02:24:54.038Z,16.23
2017-11-29T02:27:22.337Z,3.87
2017-11-29T02:29:51.410Z,4.50
2017-11-29T02:32:20.266Z,6.50
2017-11-29T02:34:48.577Z,6.33
2017-11-29T02:37:16.820Z,4.70
2017-11-29T02:42:46.446Z,5.50
2017-11-29T02:45:14.727Z,4.60
2017-11-29T02:47:42.973Z,5.03
2017-11-29T02:50:11.999Z,6.03
2017-11-29T02:52:40.264Z,5.37
2017-11-29T02:55:08.534Z,5.57
2017-11-29T02:57:37.564Z,3.87
2017-11-29T03:00:05.825Z,4.10
2017-11-29T03:02:34.098Z,5.73
2017-11-29T03:05:02.356Z,4.57
2017-11-29T03:07:31.422Z,5.53
2017-11-29T03:09:59.790Z,6.57
2017-11-29T03:12:28.032Z,4.17
2017-11-29T03:14:56.301Z,6.03
2017-11-29T03:17:24.560Z,8.00
2017-11-29T03:19:53.633Z,7.70
2017-11-29T03:22:21.869Z,5.27
2017-11-29T03:24:50.305Z,4.50
2017-11-29T03:27:19.372Z,4.87
2017-11-29T03:29:47.638Z,5.77
2017-11-29T03:32:15.904Z,6.57
2017-11-29T03:34:44.157Z,7.83
2017-11-29T03:37:12.472Z,5.27
2017-11-29T03:39:40.720Z,9.70
2017-11-29T03:42:08.995Z,5.83
2017-11-29T03:44:37.303Z,5.70
2017-11-29T03:47:05.578Z,7.97
2017-11-29T03:49:33.808Z,5.40
2017-11-29T03:52:02.093Z,6.03
2017-11-29T03:54:30.354Z,6.60
2017-11-29T03:56:59.374Z,4.33
2017-11-29T03:59:27.642Z,6.07
2017-11-29T04:01:55.928Z,6.63
2017-11-29T04:04:24.197Z,6.60
2017-11-29T04:06:52.509Z,5.43
2017-11-29T04:09:20.790Z,4.07
2017-11-29T04:11:49.037Z,6.00
2017-11-29T04:14:17.314Z,10.70
2017-11-29T04:16:45.592Z,7.33
2017-11-29T04:19:13.841Z,6.53
2017-11-29T04:21:42.996Z,12.43
2017-11-29T04:24:11.295Z,4.70
2017-11-29T04:26:40.334Z,5.40
2017-11-29T04:29:08.588Z,6.07
2017-11-29T04:31:37.625Z,7.40
2017-11-29T04:34:05.874Z,6.60
2017-11-29T04:36:34.164Z,5.30
2017-11-29T04:39:02.418Z,7.20
2017-11-29T04:41:30.668Z,5.27
2017-11-29T04:44:00.446Z,6.67
2017-11-29T04:46:28.714Z,8.23
2017-11-29T04:48:56.989Z,7.93
2017-11-29T04:51:25.250Z,13.50
2017-11-29T04:53:53.557Z,7.90
2017-11-29T04:56:21.805Z,6.87
2017-11-29T04:58:50.099Z,10.17
2017-11-29T05:01:18.386Z,5.53
2017-11-29T05:03:46.646Z,5.13
2017-11-29T05:06:14.936Z,5.57
2017-11-29T05:08:43.188Z,7.57
2017-11-29T05:11:11.454Z,6.50
2017-11-29T05:13:39.732Z,8.30
2017-11-29T05:16:08.005Z,8.00
2017-11-29T05:18:36.250Z,6.63
2017-11-29T05:21:05.301Z,11.60
2017-11-29T05:23:33.558Z,8.53
2017-11-29T05:26:01.826Z,11.03
2017-11-29T05:28:30.861Z,8.83
2017-11-29T05:30:59.121Z,10.03
2017-11-29T05:33:27.402Z,11.77
2017-11-29T05:35:55.649Z,10.33
2017-11-29T05:38:24.717Z,7.17
2017-11-29T05:40:53.066Z,8.40
2017-11-29T05:43:21.341Z,5.97
2017-11-29T05:45:49.593Z,9.80
2017-11-29T05:48:17.846Z,10.30
2017-11-29T05:50:46.891Z,8.80
2017-11-29T05:53:15.145Z,6.07
2017-11-29T05:55:43.421Z,7.93
2017-11-29T05:58:11.681Z,6.73
2017-11-29T06:00:40.840Z,10.93
2017-11-29T06:03:09.106Z,9.03
2017-11-29T06:05:37.399Z,13.27
2017-11-29T06:08:05.675Z,11.20
2017-11-29T06:10:34.033Z,6.83
2017-11-29T06:13:02.341Z,8.57
2017-11-29T06:15:32.105Z,10.30
2017-11-29T06:18:00.387Z,12.03
2017-11-29T06:20:28.642Z,8.17
2017-11-29T06:22:56.919Z,9.50
2017-11-29T06:25:25.166Z,8.63
2017-11-29T06:27:54.240Z,7.50
2017-11-29T06:30:22.517Z,8.37
2017-11-29T06:32:50.765Z,5.67
2017-11-29T06:35:19.036Z,6.77
2017-11-29T06:37:47.588Z,7.57
2017-11-29T06:40:16.630Z,9.23
2017-11-29T06:42:44.895Z,12.20
2017-11-29T06:45:13.167Z,9.03
2017-11-29T06:47:41.414Z,9.23
2017-11-29T06:50:10.477Z,8.30
2017-11-29T06:52:38.764Z,12.53
2017-11-29T06:55:07.017Z,8.30
2017-11-29T06:57:35.295Z,9.53
2017-11-29T07:00:03.597Z,8.97
2017-11-29T07:02:32.671Z,8.97
2017-11-29T07:05:00.912Z,8.97
2017-11-29T07:07:29.238Z,10.43
2017-11-29T07:09:58.331Z,14.57
2017-11-29T07:12:26.593Z,7.70
2017-11-29T07:14:54.872Z,9.83
2017-11-29T07:17:23.365Z,8.10
2017-11-29T07:19:51.690Z,42.93
2017-11-29T07:22:19.959Z,23.67
2017-11-29T07:24:49.007Z,11.40
2017-11-29T07:27:17.262Z,7.70
2017-11-29T07:29:45.538Z,9.10
2017-11-29T07:32:13.850Z,12.47
2017-11-29T07:34:43.613Z,10.23
2017-11-29T07:37:11.886Z,10.53
2017-11-29T07:39:40.205Z,7.93
2017-11-29T07:42:08.584Z,11.97
2017-11-29T07:44:36.860Z,10.37
2017-11-29T07:47:05.166Z,9.77
2017-11-29T07:49:34.950Z,11.63
2017-11-29T07:52:03.198Z,11.80
2017-11-29T07:54:31.474Z,12.80
2017-11-29T07:56:59.729Z,7.20
2017-11-29T07:59:28.777Z,7.87
2017-11-29T08:01:57.025Z,24.90
2017-11-29T08:04:25.298Z,37.97
2017-11-29T08:06:53.574Z,12.50
2017-11-29T08:09:21.896Z,10.80
2017-11-29T08:11:50.942Z,12.00
2017-11-29T08:14:19.210Z,11.03
2017-11-29T08:16:47.535Z,11.10
2017-11-29T08:19:15.811Z,10.27
2017-11-29T08:21:44.073Z,12.10
2017-11-29T08:24:12.329Z,10.37
2017-11-29T08:26:40.613Z,12.37
2017-11-29T08:29:08.926Z,16.43
2017-11-29T08:31:37.190Z,12.67
2017-11-29T08:34:05.468Z,9.53
2017-11-29T08:36:33.721Z,12.70
2017-11-29T08:39:01.997Z,13.60
2017-11-29T08:41:30.283Z,10.00
2017-11-29T08:43:58.581Z,13.80
2017-11-29T08:46:26.837Z,11.90
2017-11-29T08:48:55.108Z,12.37
2017-11-29T08:51:23.384Z,15.23
2017-11-29T08:53:51.637Z,16.30
2017-11-29T08:56:20.677Z,11.60
2017-11-29T08:58:48.933Z,11.93
2017-11-29T09:01:17.241Z,10.07
2017-11-29T09:03:45.490Z,13.67
2017-11-29T09:06:13.787Z,12.40
2017-11-29T09:08:42.038Z,13.00
2017-11-29T09:11:10.289Z,11.47
2017-11-29T09:13:39.425Z,10.30
2017-11-29T09:16:07.688Z,10.47
2017-11-29T09:18:35.993Z,10.80
2017-11-29T09:21:04.260Z,10.97
2017-11-29T09:23:32.756Z,10.90
2017-11-29T09:26:01.005Z,11.67
2017-11-29T09:28:29.326Z,14.53
2017-11-29T09:30:57.595Z,14.20
2017-11-29T09:33:25.857Z,14.00
2017-11-29T09:35:54.141Z,11.67
2017-11-29T09:38:22.430Z,13.63
2017-11-29T09:40:52.205Z,11.30
2017-11-29T09:43:20.472Z,12.07
2017-11-29T09:45:48.750Z,13.50
2017-11-29T09:48:17.194Z,10.50
2017-11-29T09:50:46.363Z,15.80
2017-11-29T09:53:14.623Z,15.93
2017-11-29T09:55:43.134Z,12.77
2017-11-29T09:58:11.462Z,12.87
2017-11-29T10:00:39.723Z,29.70
2017-11-29T10:03:08.012Z,12.63
2017-11-29T10:05:36.277Z,12.93
2017-11-29T10:08:04.553Z,11.90
2017-11-29T10:10:32.818Z,12.60
2017-11-29T10:13:01.981Z,9.90
2017-11-29T10:15:30.229Z,10.17
2017-11-29T10:17:58.530Z,16.27
2017-11-29T10:20:26.797Z,13.00
2017-11-29T10:22:55.055Z,13.40
2017-11-29T10:25:23.377Z,15.23
2017-11-29T10:27:51.644Z,14.17
2017-11-29T10:30:20.023Z,11.63
2017-11-29T10:32:48.274Z,10.23
2017-11-29T10:35:16.557Z,12.73
2017-11-29T10:37:44.841Z,9.47
2017-11-29T10:40:13.221Z,11.30
2017-11-29T10:42:41.485Z,9.23
2017-11-29T10:45:09.736Z,13.73
2017-11-29T10:47:38.059Z,12.13
2017-11-29T10:50:06.317Z,10.50
2017-11-29T10:52:34.611Z,11.80
2017-11-29T10:55:02.870Z,10.13
2017-11-29T10:57:31.375Z,11.60
2017-11-29T10:59:59.626Z,10.67
2017-11-29T11:02:27.916Z,13.97
2017-11-29T11:04:56.196Z,8.50
2017-11-29T11:07:24.586Z,9.83
2017-11-29T11:09:52.958Z,9.60
2017-11-29T11:12:21.346Z,11.10
2017-11-29T11:14:49.633Z,11.20
2017-11-29T11:17:17.944Z,11.17
2017-11-29T11:19:47.008Z,12.10
2017-11-29T11:22:15.290Z,11.87
2017-11-29T11:24:45.056Z,11.97
2017-11-29T11:27:13.948Z,9.37
2017-11-29T11:29:42.207Z,10.67
2017-11-29T11:32:10.500Z,10.47
2017-11-29T11:34:38.747Z,8.53
2017-11-29T11:37:07.777Z,19.80
2017-11-29T11:39:36.761Z,17.30
2017-11-29T11:42:05.048Z,35.20
2017-11-29T11:44:33.310Z,15.70
2017-11-29T11:47:01.577Z,10.87
2017-11-29T11:49:30.619Z,12.17
2017-11-29T11:51:58.873Z,11.87
2017-11-29T11:54:27.168Z,10.77
2017-11-29T11:56:55.427Z,8.90
2017-11-29T11:59:23.701Z,11.30
2017-11-29T12:01:51.959Z,12.27
2017-11-29T12:04:20.249Z,15.17
2017-11-29T12:06:48.515Z,10.03
2017-11-29T12:09:16.767Z,9.27
2017-11-29T12:11:45.044Z,13.30
2017-11-29T12:14:14.077Z,11.90
2017-11-29T12:16:42.360Z,11.43
2017-11-29T12:19:10.609Z,9.10
2017-11-29T12:21:38.890Z,7.50
2017-11-29T12:24:07.901Z,8.87
2017-11-29T12:26:36.185Z,11.70
2017-11-29T12:29:04.478Z,10.80
2017-11-29T12:31:32.775Z,14.53
2017-11-29T12:34:01.045Z,10.63
2017-11-29T12:36:29.321Z,12.00
2017-11-29T12:38:57.645Z,10.67
2017-11-29T12:41:26.663Z,11.20
2017-11-29T12:43:54.969Z,10.20
2017-11-29T12:46:23.243Z,11.60
2017-11-29T12:49:03.281Z,10.40
2017-11-29T12:51:31.585Z,12.10
2017-11-29T12:53:59.963Z,9.73
2017-11-29T12:56:28.210Z,9.73
2017-11-29T12:58:56.496Z,12.23
2017-11-29T13:01:24.888Z,8.80
2017-11-29T13:03:53.146Z,10.10
2017-11-29T13:06:21.413Z,10.47
2017-11-29T13:08:49.685Z,10.87
2017-11-29T13:11:17.952Z,13.70
2017-11-29T13:13:46.213Z,12.53
2017-11-29T13:16:15.262Z,13.90
2017-11-29T13:18:43.647Z,10.20
2017-11-29T13:21:11.905Z,10.40
2017-11-29T13:23:40.177Z,9.03
2017-11-29T13:26:08.429Z,11.80
2017-11-29T13:28:36.705Z,11.70
2017-11-29T13:31:04.965Z,9.53
2017-11-29T13:33:34.016Z,26.13
2017-11-29T13:36:02.275Z,21.03
2017-11-29T13:38:30.527Z,12.90
2017-11-29T13:40:59.580Z,12.57
2017-11-29T13:43:27.848Z,10.53
2017-11-29T13:45:56.117Z,10.07
2017-11-29T13:48:24.377Z,15.10
2017-11-29T13:50:52.668Z,11.97
2017-11-29T13:53:20.925Z,15.13
2017-11-29T13:55:49.177Z,12.30
2017-11-29T13:58:18.327Z,14.17
2017-11-29T14:00:46.591Z,12.80
2017-11-29T14:03:14.897Z,14.13
2017-11-29T14:05:43.149Z,12.57
2017-11-29T14:08:11.418Z,11.60
2017-11-29T14:10:39.710Z,14.17
2017-11-29T14:13:08.008Z,11.20
2017-11-29T14:15:36.269Z,8.60
2017-11-29T14:18:04.521Z,14.33
2017-11-29T14:20:32.792Z,14.13
2017-11-29T14:23:01.095Z,11.70
2017-11-29T14:25:29.369Z,9.80
2017-11-29T14:27:57.658Z,11.50
2017-11-29T14:30:25.947Z,11.17
2017-11-29T14:32:54.187Z,10.27
2017-11-29T14:35:22.437Z,12.37
2017-11-29T14:37:50.716Z,17.03
2017-11-29T14:40:19.744Z,12.47
2017-11-29T14:42:48.013Z,10.40
2017-11-29T14:45:16.281Z,12.40
2017-11-29T14:47:44.561Z,13.00
2017-11-29T14:50:12.815Z,13.23
2017-11-29T14:52:41.066Z,10.77
2017-11-29T14:55:09.332Z,12.47
2017-11-29T14:57:39.864Z,11.47
2017-11-29T15:00:08.904Z,11.13
2017-11-29T15:02:37.166Z,12.47
2017-11-29T15:05:06.316Z,12.17
2017-11-29T15:07:34.585Z,10.70
2017-11-29T15:10:02.956Z,13.83
2017-11-29T15:12:31.218Z,12.93
2017-11-29T15:14:59.477Z,16.80
2017-11-29T15:17:28.519Z,12.33
2017-11-29T15:19:56.792Z,16.40
2017-11-29T15:22:25.074Z,26.70
2017-11-29T15:24:53.576Z,13.90
2017-11-29T15:27:23.371Z,13.90
2017-11-29T15:29:51.626Z,11.23
2017-11-29T15:32:19.926Z,11.67
2017-11-29T15:34:48.273Z,14.40
2017-11-29T15:37:16.579Z,13.30
2017-11-29T15:39:44.957Z,10.93
2017-11-29T15:42:13.226Z,13.63
2017-11-29T15:44:41.506Z,19.13
2017-11-29T15:47:09.792Z,23.70
2017-11-29T15:49:38.058Z,14.77
2017-11-29T15:52:06.306Z,14.43
2017-11-29T15:54:34.588Z,12.50
2017-11-29T15:57:02.866Z,12.17
2017-11-29T15:59:31.119Z,11.87
2017-11-29T16:02:00.155Z,18.37
2017-11-29T16:04:28.407Z,9.97
2017-11-29T16:06:56.678Z,12.33
2017-11-29T16:09:24.942Z,16.57
2017-11-29T16:11:54.015Z,15.00
2017-11-29T16:14:23.080Z,14.10
2017-11-29T16:16:51.334Z,15.50
2017-11-29T16:19:19.705Z,16.77
2017-11-29T16:21:48.022Z,14.80
2017-11-29T16:24:16.295Z,16.77
2017-11-29T16:26:44.576Z,13.57
2017-11-29T16:29:12.842Z,15.53
2017-11-29T16:31:41.115Z,13.60
2017-11-29T16:34:09.391Z,11.73
2017-11-29T16:36:37.666Z,14.13
2017-11-29T16:39:05.921Z,22.83
2017-11-29T16:41:34.796Z,13.83
2017-11-29T16:44:03.822Z,13.43
2017-11-29T16:46:32.098Z,12.10
2017-11-29T16:49:00.349Z,11.93
2017-11-29T16:51:28.640Z,13.43
2017-11-29T16:53:56.900Z,10.80
2017-11-29T16:56:26.259Z,9.73
2017-11-29T16:58:54.533Z,10.93
2017-11-29T17:01:22.814Z,13.13
2017-11-29T17:03:51.462Z,14.00
2017-11-29T17:06:19.722Z,14.70
2017-11-29T17:08:48.769Z,12.67
2017-11-29T17:11:17.791Z,11.10
2017-11-29T17:13:46.962Z,10.20
2017-11-29T17:16:15.201Z,9.67
2017-11-29T17:18:43.461Z,11.77
2017-11-29T17:21:12.510Z,13.27
2017-11-29T17:23:40.753Z,13.37
2017-11-29T17:26:09.028Z,14.87
2017-11-29T17:28:38.800Z,9.77
2017-11-29T17:31:07.078Z,23.20
2017-11-29T17:33:35.337Z,14.70
2017-11-29T17:36:03.622Z,12.40
2017-11-29T17:38:31.926Z,13.37
2017-11-29T17:41:00.198Z,11.00
2017-11-29T17:43:28.467Z,12.70
2017-11-29T17:45:56.747Z,12.73
2017-11-29T17:48:25.144Z,10.03
2017-11-29T17:50:53.403Z,10.63
2017-11-29T17:53:21.677Z,14.27
2017-11-29T17:55:49.933Z,11.90
2017-11-29T17:58:18.248Z,14.03
2017-11-29T18:00:46.561Z,12.33
2017-11-29T18:03:15.573Z,15.27
2017-11-29T18:05:43.901Z,10.93
2017-11-29T18:08:12.155Z,13.03
2017-11-29T18:10:40.455Z,11.50
2017-11-29T18:13:08.697Z,16.23
2017-11-29T18:15:36.983Z,15.80
2017-11-29T18:18:05.249Z,14.07
2017-11-29T18:20:33.522Z,16.67
2017-11-29T18:23:01.797Z,12.60
2017-11-29T18:25:30.054Z,15.37
2017-11-29T18:27:59.113Z,15.27
2017-11-29T18:30:27.353Z,15.80
2017-11-29T18:32:55.635Z,21.27
2017-11-29T18:35:23.901Z,20.60
2017-11-29T18:37:52.161Z,17.37
2017-11-29T18:40:20.445Z,14.17
2017-11-29T18:42:48.704Z,17.03
2017-11-29T18:45:17.742Z,15.23
2017-11-29T18:47:46.001Z,15.50
2017-11-29T18:50:14.287Z,17.63
2017-11-29T18:52:42.537Z,16.57
2017-11-29T18:55:11.927Z,16.73
2017-11-29T18:57:41.706Z,15.93
2017-11-29T19:00:09.968Z,16.20
2017-11-29T19:02:38.278Z,15.67
2017-11-29T19:05:06.544Z,20.13
2017-11-29T19:07:34.814Z,17.40
2017-11-29T19:10:03.088Z,16.73
2017-11-29T19:12:31.363Z,14.07
2017-11-29T19:14:59.741Z,16.60
2017-11-29T19:17:27.992Z,15.47
2017-11-29T19:19:56.264Z,20.23
2017-11-29T19:22:24.529Z,24.53
2017-11-29T19:24:52.849Z,25.73
2017-11-29T19:27:21.136Z,13.03
2017-11-29T19:29:49.405Z,19.03
2017-11-29T19:32:17.658Z,13.77
2017-11-29T19:34:45.942Z,13.13
2017-11-29T19:37:14.222Z,12.77
2017-11-29T19:39:42.523Z,16.53
2017-11-29T19:42:10.783Z,30.50
2017-11-29T19:44:39.049Z,21.87
2017-11-29T19:47:07.347Z,18.43
2017-11-29T19:49:35.617Z,11.67
2017-11-29T19:52:04.025Z,15.33
2017-11-29T19:54:33.050Z,19.43
2017-11-29T19:57:02.074Z,13.93
2017-11-29T19:59:30.555Z,17.70
2017-11-29T20:01:58.853Z,17.17
2017-11-29T20:04:27.145Z,21.43
2017-11-29T20:06:55.424Z,17.00
2017-11-29T20:09:23.709Z,18.20
2017-11-29T20:11:52.757Z,14.63
2017-11-29T20:14:21.037Z,16.60
2017-11-29T20:16:49.442Z,20.30
2017-11-29T20:19:17.689Z,15.23
2017-11-29T20:21:45.938Z,12.83
2017-11-29T20:24:14.989Z,17.10
2017-11-29T20:26:43.265Z,13.13
2017-11-29T20:29:11.513Z,31.73
2017-11-29T20:31:39.789Z,40.20
2017-11-29T20:34:08.049Z,17.23
2017-11-29T20:36:36.349Z,17.13
2017-11-29T20:39:04.613Z,16.60
2017-11-29T20:41:32.870Z,15.37
2017-11-29T20:44:01.922Z,18.30
2017-11-29T20:46:30.174Z,19.80
2017-11-29T20:48:58.465Z,19.33
2017-11-29T20:51:26.725Z,14.23
2017-11-29T20:53:54.972Z,18.17
2017-11-29T20:56:24.014Z,16.43
2017-11-29T20:58:52.273Z,14.03
2017-11-29T21:01:20.547Z,12.80
2017-11-29T21:03:48.798Z,15.07
2017-11-29T21:06:17.945Z,15.33
2017-11-29T21:08:46.213Z,17.63
2017-11-29T21:11:14.465Z,13.73
2017-11-29T21:13:42.742Z,16.50
2017-11-29T21:16:11.001Z,21.83
2017-11-29T21:18:39.299Z,16.27
2017-11-29T21:21:07.607Z,20.30
2017-11-29T21:23:35.877Z,18.30
2017-11-29T21:26:04.162Z,16.53
2017-11-29T21:28:32.433Z,15.27
2017-11-29T21:31:00.710Z,15.43
2017-11-29T21:33:28.985Z,16.03
2017-11-29T21:35:57.377Z,15.40
2017-11-29T21:38:25.657Z,22.03
2017-11-29T21:40:53.921Z,24.27
2017-11-29T21:43:22.316Z,18.20
2017-11-29T21:45:50.573Z,19.60
2017-11-29T21:48:18.855Z,19.40
2017-11-29T21:50:47.129Z,16.90
2017-11-29T21:53:15.418Z,16.67
2017-11-29T21:55:43.802Z,15.03
2017-11-29T21:58:12.053Z,18.10
2017-11-29T22:00:40.329Z,18.43
2017-11-29T22:03:08.597Z,43.33
2017-11-29T22:05:36.876Z,35.83
2017-11-29T22:08:05.173Z,18.93
2017-11-29T22:10:33.433Z,20.37
2017-11-29T22:13:01.691Z,20.47
2017-11-29T22:15:29.954Z,22.23
2017-11-29T22:17:58.998Z,21.93
2017-11-29T22:20:27.285Z,21.17
2017-11-29T22:22:55.575Z,23.23
2017-11-29T22:25:23.834Z,18.30
2017-11-29T22:27:52.296Z,15.97
2017-11-29T22:30:21.289Z,15.03
2017-11-29T22:32:49.541Z,15.50
2017-11-29T22:35:17.941Z,22.00
2017-11-29T22:37:46.205Z,18.03
2017-11-29T22:40:14.484Z,18.20
2017-11-29T22:42:42.747Z,17.30
2017-11-29T22:45:11.041Z,16.83
2017-11-29T22:47:39.354Z,15.87
2017-11-29T22:50:07.624Z,18.73
2017-11-29T22:52:35.916Z,20.93
2017-11-29T22:55:04.288Z,16.00
2017-11-29T22:57:32.564Z,20.33
2017-11-29T23:00:00.823Z,18.37
2017-11-29T23:02:29.535Z,20.60
2017-11-29T23:04:57.793Z,18.17
2017-11-29T23:07:26.109Z,17.63
2017-11-29T23:09:54.367Z,19.33
2017-11-29T23:12:22.949Z,17.93
2017-11-29T23:14:52.144Z,17.53
2017-11-29T23:17:21.501Z,17.17
2017-11-29T23:19:49.785Z,25.00
2017-11-29T23:22:18.069Z,20.70
2017-11-29T23:24:46.326Z,20.37
2017-11-29T23:27:14.609Z,18.23
2017-11-29T23:29:42.877Z,19.73
2017-11-29T23:32:11.170Z,21.30
2017-11-29T23:34:39.430Z,18.60
2017-11-29T23:37:07.704Z,13.67
2017-11-29T23:39:36.745Z,14.87
2017-11-29T23:42:05.011Z,18.47
2017-11-29T23:44:33.322Z,19.67
2017-11-29T23:47:01.568Z,17.97
2017-11-29T23:49:29.847Z,19.10
2017-11-29T23:51:58.156Z,17.00
2017-11-29T23:54:27.977Z,14.07
2017-11-29T23:56:57.775Z,21.73
2017-11-29T23:59:26.054Z,18.83
